Time;durP1;ratioP1;P1;durP2;ratioP2;P2;SDS_P1;SDS_P2;PMS_P1;PMS_P2;Temp;Humidity;BMP_temperature;BMP_pressure;BME280_temperature;BME280_humidity;BME280_pressure;Samples;Min_cycle;Max_cycle;Signal;HPM_P1;HPM_P2
2022/03/24 00:01:41;;;;;;;98.55;37.70;;;;;;;;;;5068420;28;20528;-47
2022/03/24 00:04:06;;;;;;;98.05;40.10;;;;;;;;;;5066504;28;20045;-47
2022/03/24 00:06:32;;;;;;;99.22;37.75;;;;;;;;;;5064521;28;20556;-47
2022/03/24 00:08:58;;;;;;;94.03;37.47;;;;;;;;;;5067721;28;20040;-47
2022/03/24 00:11:23;;;;;;;100.95;38.17;;;;;;;;;;5067711;28;20375;-47
2022/03/24 00:13:49;;;;;;;93.90;38.05;;;;;;;;;;5069552;28;20089;-47
2022/03/24 00:16:19;;;;;;;100.88;36.95;;;;;;;;;;5060271;28;20024;-48
2022/03/24 00:18:47;;;;;;;91.43;36.38;;;;;;;;;;5062762;28;20093;-46
2022/03/24 00:21:16;;;;;;;93.63;38.13;;;;;;;;;;5059228;28;20024;-46
2022/03/24 00:23:42;;;;;;;86.35;35.58;;;;;;;;;;5062921;28;20082;-46
2022/03/24 00:26:08;;;;;;;91.43;34.95;;;;;;;;;;5063174;28;20032;-47
2022/03/24 00:28:33;;;;;;;74.78;34.28;;;;;;;;;;5064902;28;20033;-47
2022/03/24 00:31:01;;;;;;;96.90;36.05;;;;;;;;;;5065445;28;20039;-47
2022/03/24 00:33:27;;;;;;;81.43;35.33;;;;;;;;;;5064707;28;20028;-47
2022/03/24 00:35:53;;;;;;;83.40;34.88;;;;;;;;;;5063357;28;20072;-47
2022/03/24 00:38:19;;;;;;;89.05;34.30;;;;;;;;;;5065835;28;20584;-48
2022/03/24 00:40:44;;;;;;;81.75;34.63;;;;;;;;;;5063361;28;20044;-49
2022/03/24 00:43:10;;;;;;;83.70;35.25;;;;;;;;;;5066633;28;20039;-47
2022/03/24 00:45:40;;;;;;;93.70;37.33;;;;;;;;;;5062280;28;20044;-46
2022/03/24 00:48:06;;;;;;;76.35;33.75;;;;;;;;;;5065749;28;20512;-47
2022/03/24 00:50:32;;;;;;;76.78;34.95;;;;;;;;;;5066971;28;20031;-47
2022/03/24 00:52:57;;;;;;;86.88;34.63;;;;;;;;;;5066877;28;20032;-47
2022/03/24 00:55:23;;;;;;;81.43;33.78;;;;;;;;;;5070815;28;20039;-47
2022/03/24 00:57:50;;;;;;;75.95;33.72;;;;;;;;;;5066992;28;20451;-47
2022/03/24 01:00:20;;;;;;;84.70;33.42;;;;;;;;;;5063427;28;20048;-47
2022/03/24 01:02:48;;;;;;;99.35;35.15;;;;;;;;;;5061514;28;20033;-47
2022/03/24 01:05:15;;;;;;;82.82;35.90;;;;;;;;;;5068251;28;20048;-47
2022/03/24 01:07:42;;;;;;;78.70;35.72;;;;;;;;;;5061424;28;20039;-48
2022/03/24 01:10:09;;;;;;;74.18;34.15;;;;;;;;;;5064852;28;20032;-47
2022/03/24 01:12:34;;;;;;;90.53;37.38;;;;;;;;;;5065522;28;20474;-48
2022/03/24 01:15:00;;;;;;;94.47;36.35;;;;;;;;;;5063522;28;20051;-47
2022/03/24 01:17:26;;;;;;;97.57;36.65;;;;;;;;;;5061067;28;20152;-47
2022/03/24 01:19:53;;;;;;;106.78;37.75;;;;;;;;;;5065726;28;20017;-47
2022/03/24 01:22:19;;;;;;;88.05;37.17;;;;;;;;;;5062406;28;20056;-47
2022/03/24 01:24:45;;;;;;;89.28;38.38;;;;;;;;;;5064783;28;20112;-47
2022/03/24 01:27:15;;;;;;;91.88;37.88;;;;;;;;;;5064890;28;20025;-48
2022/03/24 01:29:41;;;;;;;87.72;37.17;;;;;;;;;;5059493;28;20036;-47
2022/03/24 01:32:07;;;;;;;84.93;38.20;;;;;;;;;;5061460;28;20108;-48
2022/03/24 01:34:34;;;;;;;89.25;38.45;;;;;;;;;;5062999;28;20040;-47
2022/03/24 01:37:00;;;;;;;87.85;36.92;;;;;;;;;;5063148;28;20560;-48
2022/03/24 01:39:26;;;;;;;80.10;37.45;;;;;;;;;;5064922;28;20040;-47
2022/03/24 01:41:51;;;;;;;84.50;37.45;;;;;;;;;;5063670;28;20040;-47
2022/03/24 01:44:19;;;;;;;87.45;36.70;;;;;;;;;;5062293;28;20040;-47
2022/03/24 01:47:05;;;;;;;90.70;36.63;;;;;;;;;;5062592;28;20036;-48
2022/03/24 01:49:34;;;;;;;81.78;35.83;;;;;;;;;;5065880;28;20033;-47
2022/03/24 01:52:01;;;;;;;83.43;36.00;;;;;;;;;;5065387;28;20482;-47
2022/03/24 01:54:30;;;;;;;88.47;35.92;;;;;;;;;;5069399;28;20089;-47
2022/03/24 01:56:57;;;;;;;85.57;36.90;;;;;;;;;;5064918;28;20502;-47
2022/03/24 01:59:23;;;;;;;96.38;37.50;;;;;;;;;;5067879;28;20055;-47
2022/03/24 02:01:50;;;;;;;79.95;34.90;;;;;;;;;;5071411;28;20039;-47
2022/03/24 02:04:16;;;;;;;96.32;35.78;;;;;;;;;;5070323;28;20056;-47
2022/03/24 02:06:42;;;;;;;93.38;36.17;;;;;;;;;;5072948;28;20028;-47
2022/03/24 02:09:08;;;;;;;86.22;34.70;;;;;;;;;;5069702;28;20064;-47
2022/03/24 02:11:34;;;;;;;81.85;34.75;;;;;;;;;;5070566;28;20515;-47
2022/03/24 02:14:01;;;;;;;83.03;34.88;;;;;;;;;;5069788;28;20410;-47
2022/03/24 02:16:38;;;;;;;76.68;33.88;;;;;;;;;;5064756;28;20798;-47
2022/03/24 02:19:17;;;;;;;82.75;34.90;;;;;;;;;;5064864;28;20103;-48
2022/03/24 02:21:45;;;;;;;89.60;35.08;;;;;;;;;;5067957;28;20111;-47
2022/03/24 02:24:13;;;;;;;76.07;33.28;;;;;;;;;;5064418;28;20431;-47
2022/03/24 02:26:40;;;;;;;84.25;34.08;;;;;;;;;;5065009;28;20114;-47
2022/03/24 02:29:06;;;;;;;79.25;34.60;;;;;;;;;;5065564;28;20032;-47
2022/03/24 02:31:38;;;;;;;77.63;32.67;;;;;;;;;;5070238;28;20024;-47
2022/03/24 02:36:50;;;;;;;74.90;32.20;;;;;;;;;;5067953;28;20047;-47
2022/03/24 02:39:16;;;;;;;78.95;33.55;;;;;;;;;;5066014;28;20056;-47
2022/03/24 02:42:01;;;;;;;82.20;33.28;;;;;;;;;;5066093;28;20044;-47
2022/03/24 02:44:30;;;;;;;70.50;32.90;;;;;;;;;;5063646;28;20474;-47
2022/03/24 02:46:57;;;;;;;82.82;33.13;;;;;;;;;;5066221;28;20032;-47
2022/03/24 02:49:25;;;;;;;69.85;31.55;;;;;;;;;;5065177;28;20036;-47
2022/03/24 02:51:53;;;;;;;72.10;31.95;;;;;;;;;;5064255;28;20440;-47
2022/03/24 02:54:19;;;;;;;77.00;31.77;;;;;;;;;;5065908;28;20305;-48
2022/03/24 02:56:45;;;;;;;76.05;31.88;;;;;;;;;;5066810;28;20032;-47
2022/03/24 02:59:12;;;;;;;67.55;30.63;;;;;;;;;;5065819;28;20051;-47
2022/03/24 03:01:41;;;;;;;67.13;30.80;;;;;;;;;;5068394;28;20390;-48
2022/03/24 03:04:08;;;;;;;82.43;31.83;;;;;;;;;;5065631;28;20049;-47
2022/03/24 03:06:34;;;;;;;77.43;32.65;;;;;;;;;;5069055;28;20051;-47
2022/03/24 03:09:01;;;;;;;75.45;31.38;;;;;;;;;;5066512;28;20033;-47
2022/03/24 03:11:30;;;;;;;72.00;30.17;;;;;;;;;;5066612;28;20029;-47
2022/03/24 03:13:56;;;;;;;72.95;31.00;;;;;;;;;;5066841;28;20297;-47
2022/03/24 03:16:22;;;;;;;75.43;31.67;;;;;;;;;;5069376;28;20104;-47
2022/03/24 03:18:48;;;;;;;64.97;30.13;;;;;;;;;;5069454;28;20024;-47
2022/03/24 03:21:14;;;;;;;65.35;29.10;;;;;;;;;;5064469;28;20550;-47
2022/03/24 03:23:40;;;;;;;65.53;29.17;;;;;;;;;;5061443;28;20071;-47
2022/03/24 03:26:06;;;;;;;68.13;29.48;;;;;;;;;;5068274;28;20093;-48
2022/03/24 03:28:32;;;;;;;63.25;28.85;;;;;;;;;;5078587;28;20033;-47
2022/03/24 03:30:58;;;;;;;64.13;29.10;;;;;;;;;;5076116;28;20440;-47
2022/03/24 03:33:24;;;;;;;66.05;28.42;;;;;;;;;;5069641;28;20028;-47
2022/03/24 03:35:50;;;;;;;63.42;29.00;;;;;;;;;;5071259;28;20048;-50
2022/03/24 03:38:15;;;;;;;70.15;28.67;;;;;;;;;;5071871;28;20036;-48
2022/03/24 03:40:41;;;;;;;66.32;27.63;;;;;;;;;;5064024;28;20048;-47
2022/03/24 03:43:07;;;;;;;64.72;29.20;;;;;;;;;;5064923;28;20063;-48
2022/03/24 03:45:33;;;;;;;72.32;28.88;;;;;;;;;;5062908;28;21407;-47
2022/03/24 03:47:58;;;;;;;71.43;26.58;;;;;;;;;;5068424;28;20033;-47
2022/03/24 03:50:25;;;;;;;61.75;26.67;;;;;;;;;;5067143;28;20052;-47
2022/03/24 03:52:50;;;;;;;59.92;25.00;;;;;;;;;;5069389;28;20063;-47
2022/03/24 03:55:16;;;;;;;58.72;25.50;;;;;;;;;;5066001;28;20502;-47
2022/03/24 03:57:42;;;;;;;63.47;25.50;;;;;;;;;;5072225;28;20270;-47
2022/03/24 04:02:52;;;;;;;61.55;24.13;;;;;;;;;;5066592;28;20112;-47
2022/03/24 04:05:24;;;;;;;54.47;25.17;;;;;;;;;;5069482;28;20147;-47
2022/03/24 04:07:50;;;;;;;53.35;23.90;;;;;;;;;;5064988;28;20379;-47
2022/03/24 04:10:15;;;;;;;52.28;22.95;;;;;;;;;;5068013;28;20487;-47
2022/03/24 04:12:43;;;;;;;48.90;22.48;;;;;;;;;;5070780;28;20033;-47
2022/03/24 04:15:08;;;;;;;51.83;23.70;;;;;;;;;;5061972;28;20170;-48
2022/03/24 04:17:34;;;;;;;55.17;23.52;;;;;;;;;;5065578;28;20094;-47
2022/03/24 04:19:59;;;;;;;56.75;23.05;;;;;;;;;;5066792;28;20037;-47
2022/03/24 04:22:25;;;;;;;64.43;23.90;;;;;;;;;;5063203;28;20620;-47
2022/03/24 04:24:51;;;;;;;54.92;23.48;;;;;;;;;;5062683;28;20063;-47
2022/03/24 04:27:16;;;;;;;52.15;23.25;;;;;;;;;;5064270;28;20422;-47
2022/03/24 04:29:42;;;;;;;55.97;23.73;;;;;;;;;;5065428;28;20445;-47
2022/03/24 04:32:08;;;;;;;58.40;23.58;;;;;;;;;;5070334;28;20126;-47
2022/03/24 04:34:33;;;;;;;51.67;22.27;;;;;;;;;;5070030;28;20044;-49
2022/03/24 04:36:59;;;;;;;50.70;22.35;;;;;;;;;;5067941;28;20040;-47
2022/03/24 04:39:24;;;;;;;50.65;20.77;;;;;;;;;;5064701;28;20039;-47
2022/03/24 04:41:50;;;;;;;50.50;21.00;;;;;;;;;;5064213;28;20033;-47
2022/03/24 04:44:15;;;;;;;54.97;21.52;;;;;;;;;;5067138;28;20040;-47
2022/03/24 04:46:41;;;;;;;46.65;20.60;;;;;;;;;;5058561;28;20125;-47
2022/03/24 04:49:08;;;;;;;42.42;20.23;;;;;;;;;;5068888;28;20040;-47
2022/03/24 04:51:33;;;;;;;58.25;20.80;;;;;;;;;;5063018;28;20036;-47
2022/03/24 04:53:59;;;;;;;43.95;19.40;;;;;;;;;;5064719;28;20536;-47
2022/03/24 04:56:24;;;;;;;41.70;19.08;;;;;;;;;;5064938;28;20025;-47
2022/03/24 04:58:50;;;;;;;43.03;19.42;;;;;;;;;;5063147;28;20118;-47
2022/03/24 05:01:15;;;;;;;44.15;18.55;;;;;;;;;;5066239;28;20119;-47
2022/03/24 05:03:46;;;;;;;41.97;19.42;;;;;;;;;;5062996;28;20464;-47
2022/03/24 05:06:12;;;;;;;39.47;18.95;;;;;;;;;;5066749;28;20029;-47
2022/03/24 05:08:37;;;;;;;45.55;18.80;;;;;;;;;;5062526;28;20134;-47
2022/03/24 05:11:03;;;;;;;40.25;17.75;;;;;;;;;;5064580;28;20037;-47
2022/03/24 05:13:28;;;;;;;43.10;19.10;;;;;;;;;;5065759;28;20051;-47
2022/03/24 05:15:56;;;;;;;44.50;18.90;;;;;;;;;;5064593;28;20048;-47
2022/03/24 05:18:23;;;;;;;39.38;19.10;;;;;;;;;;5065421;28;20236;-49
2022/03/24 05:20:49;;;;;;;42.53;17.75;;;;;;;;;;5065604;28;20036;-47
2022/03/24 05:23:15;;;;;;;43.17;18.42;;;;;;;;;;5071292;28;20026;-47
2022/03/24 05:25:41;;;;;;;44.20;18.60;;;;;;;;;;5064339;28;20024;-47
2022/03/24 05:28:07;;;;;;;42.33;18.05;;;;;;;;;;5072330;28;20024;-47
2022/03/24 05:30:33;;;;;;;42.05;18.20;;;;;;;;;;5073284;28;20472;-47
2022/03/24 05:32:58;;;;;;;48.50;20.00;;;;;;;;;;5075963;28;20043;-47
2022/03/24 05:35:24;;;;;;;41.22;18.67;;;;;;;;;;5068022;28;20032;-46
2022/03/24 05:37:50;;;;;;;45.75;18.48;;;;;;;;;;5067023;28;20032;-47
2022/03/24 05:40:15;;;;;;;40.60;18.92;;;;;;;;;;5067802;28;20059;-47
2022/03/24 05:42:41;;;;;;;42.75;17.08;;;;;;;;;;5069903;28;20033;-47
2022/03/24 05:45:07;;;;;;;40.38;17.40;;;;;;;;;;5064700;28;20071;-50
2022/03/24 05:47:32;;;;;;;39.67;18.45;;;;;;;;;;5069180;28;20148;-47
2022/03/24 05:49:58;;;;;;;42.83;18.88;;;;;;;;;;5064599;28;20983;-47
2022/03/24 05:52:24;;;;;;;40.80;17.15;;;;;;;;;;5070860;28;20040;-47
2022/03/24 05:54:49;;;;;;;37.25;16.60;;;;;;;;;;5069251;28;20056;-47
2022/03/24 05:57:15;;;;;;;38.25;17.33;;;;;;;;;;5066903;28;20608;-48
2022/03/24 05:59:40;;;;;;;43.33;18.08;;;;;;;;;;5067120;28;20032;-47
2022/03/24 06:02:06;;;;;;;35.17;15.50;;;;;;;;;;5066921;28;20107;-47
2022/03/24 06:04:32;;;;;;;41.47;17.65;;;;;;;;;;5068486;28;20461;-48
2022/03/24 06:06:58;;;;;;;44.97;17.35;;;;;;;;;;5067156;28;20036;-47
2022/03/24 06:09:23;;;;;;;32.72;16.75;;;;;;;;;;5064565;28;20037;-47
2022/03/24 06:11:49;;;;;;;44.25;18.27;;;;;;;;;;5070658;28;20029;-48
2022/03/24 06:14:15;;;;;;;38.03;16.55;;;;;;;;;;5071618;28;20029;-47
2022/03/24 06:16:41;;;;;;;39.38;16.05;;;;;;;;;;5066439;28;20359;-49
2022/03/24 06:19:09;;;;;;;37.58;17.67;;;;;;;;;;5068654;28;20327;-47
2022/03/24 06:21:35;;;;;;;41.30;16.88;;;;;;;;;;5069477;28;20524;-46
2022/03/24 06:24:00;;;;;;;45.92;17.33;;;;;;;;;;5068229;28;20040;-47
2022/03/24 06:26:26;;;;;;;53.75;16.85;;;;;;;;;;5065903;28;20043;-47
2022/03/24 06:28:54;;;;;;;36.70;16.63;;;;;;;;;;5065328;28;20086;-47
2022/03/24 06:31:20;;;;;;;36.88;17.48;;;;;;;;;;5066578;28;20446;-47
2022/03/24 06:33:46;;;;;;;39.40;17.85;;;;;;;;;;5062624;28;20032;-47
2022/03/24 06:36:11;;;;;;;44.28;17.00;;;;;;;;;;5069595;28;20024;-47
2022/03/24 06:38:37;;;;;;;40.00;16.77;;;;;;;;;;5066660;28;20032;-46
2022/03/24 06:41:04;;;;;;;38.92;16.67;;;;;;;;;;5065273;28;20093;-47
2022/03/24 06:43:30;;;;;;;37.95;17.70;;;;;;;;;;5066460;28;20660;-48
2022/03/24 06:45:57;;;;;;;38.20;18.00;;;;;;;;;;5064728;28;20154;-47
2022/03/24 06:48:22;;;;;;;43.35;18.50;;;;;;;;;;5062389;28;20048;-47
2022/03/24 06:50:49;;;;;;;37.33;18.10;;;;;;;;;;5064750;28;20032;-47
2022/03/24 06:53:15;;;;;;;39.75;17.38;;;;;;;;;;5063273;28;20079;-47
2022/03/24 06:55:40;;;;;;;53.03;18.50;;;;;;;;;;5065340;28;20106;-47
2022/03/24 06:58:06;;;;;;;45.58;18.15;;;;;;;;;;5064975;28;20020;-47
2022/03/24 07:00:32;;;;;;;38.38;18.45;;;;;;;;;;5063956;28;20518;-47
2022/03/24 07:02:58;;;;;;;56.42;18.98;;;;;;;;;;5066828;28;20032;-47
2022/03/24 07:05:24;;;;;;;45.35;19.88;;;;;;;;;;5064555;28;20182;-46
2022/03/24 07:07:50;;;;;;;47.40;19.00;;;;;;;;;;5068970;28;20162;-47
2022/03/24 07:10:17;;;;;;;47.45;21.08;;;;;;;;;;5075382;28;20035;-47
2022/03/24 07:12:43;;;;;;;42.72;18.42;;;;;;;;;;5068392;28;20407;-47
2022/03/24 07:15:10;;;;;;;51.78;22.08;;;;;;;;;;5066938;28;20039;-47
2022/03/24 07:17:36;;;;;;;41.45;18.98;;;;;;;;;;5060108;28;20040;-47
2022/03/24 07:20:06;;;;;;;56.78;22.25;;;;;;;;;;5080199;28;20016;-46
2022/03/24 07:22:36;;;;;;;53.63;21.70;;;;;;;;;;5065887;28;20024;-46
2022/03/24 07:25:05;;;;;;;43.58;21.30;;;;;;;;;;5064772;28;20049;-47
2022/03/24 07:27:30;;;;;;;57.63;21.92;;;;;;;;;;5066089;28;20036;-47
2022/03/24 07:29:56;;;;;;;59.90;21.95;;;;;;;;;;5070674;28;20498;-47
2022/03/24 07:32:21;;;;;;;53.78;22.23;;;;;;;;;;5070157;28;20028;-47
2022/03/24 07:34:47;;;;;;;44.58;22.45;;;;;;;;;;5064473;28;20024;-46
2022/03/24 07:37:15;;;;;;;54.08;21.60;;;;;;;;;;5072421;28;20102;-47
2022/03/24 07:39:41;;;;;;;65.05;24.58;;;;;;;;;;5069430;28;20035;-47
2022/03/24 07:42:07;;;;;;;55.97;23.98;;;;;;;;;;5074002;28;20405;-46
2022/03/24 07:44:33;;;;;;;59.22;23.15;;;;;;;;;;5060285;28;20044;-46
2022/03/24 07:46:59;;;;;;;47.92;22.02;;;;;;;;;;5064185;28;20028;-47
2022/03/24 07:49:24;;;;;;;50.17;22.92;;;;;;;;;;5066462;28;20491;-47
2022/03/24 07:51:50;;;;;;;58.60;23.83;;;;;;;;;;5067381;28;20032;-47
2022/03/24 07:54:15;;;;;;;49.63;23.58;;;;;;;;;;5068900;28;20414;-47
2022/03/24 07:56:41;;;;;;;54.83;23.13;;;;;;;;;;5070796;28;20528;-47
2022/03/24 07:59:06;;;;;;;65.82;24.45;;;;;;;;;;5067099;28;20115;-46
2022/03/24 08:01:34;;;;;;;65.72;24.45;;;;;;;;;;5070983;28;20031;-46
2022/03/24 08:04:09;;;;;;;52.55;23.15;;;;;;;;;;5070121;28;20041;-47
2022/03/24 08:06:39;;;;;;;64.72;22.27;;;;;;;;;;5070864;28;20047;-47
2022/03/24 08:09:04;;;;;;;56.03;23.20;;;;;;;;;;5065137;28;20174;-47
2022/03/24 08:11:30;;;;;;;57.65;21.70;;;;;;;;;;5068917;28;20495;-47
2022/03/24 08:13:56;;;;;;;52.15;22.40;;;;;;;;;;5072993;28;20640;-47
2022/03/24 08:16:24;;;;;;;56.40;22.50;;;;;;;;;;5069578;28;20024;-47
2022/03/24 08:18:50;;;;;;;57.78;23.27;;;;;;;;;;5074411;28;20583;-47
2022/03/24 08:21:16;;;;;;;55.70;23.55;;;;;;;;;;5069616;28;20161;-46
2022/03/24 08:23:41;;;;;;;57.83;23.02;;;;;;;;;;5073594;28;20398;-47
2022/03/24 08:26:07;;;;;;;48.03;21.95;;;;;;;;;;5063145;28;20061;-47
2022/03/24 08:28:33;;;;;;;53.95;23.00;;;;;;;;;;5065271;28;20052;-47
2022/03/24 08:30:58;;;;;;;57.35;23.42;;;;;;;;;;5070337;28;20440;-46
2022/03/24 08:33:24;;;;;;;55.72;22.27;;;;;;;;;;5071141;28;20028;-47
2022/03/24 08:35:49;;;;;;;56.00;22.42;;;;;;;;;;5067441;28;20036;-47
2022/03/24 08:38:15;;;;;;;64.03;23.25;;;;;;;;;;5069900;28;20032;-47
2022/03/24 08:40:40;;;;;;;52.95;22.65;;;;;;;;;;5065634;28;20403;-49
2022/03/24 08:43:07;;;;;;;59.78;23.42;;;;;;;;;;5072582;28;20032;-47
2022/03/24 08:45:33;;;;;;;56.83;23.63;;;;;;;;;;5060990;28;20114;-47
2022/03/24 08:47:59;;;;;;;57.55;22.48;;;;;;;;;;5064489;28;20107;-47
2022/03/24 08:50:24;;;;;;;53.40;22.13;;;;;;;;;;5062957;28;20032;-47
2022/03/24 08:52:50;;;;;;;59.45;24.30;;;;;;;;;;5062494;28;20033;-48
2022/03/24 08:55:16;;;;;;;53.88;22.63;;;;;;;;;;5060671;28;20111;-49
2022/03/24 08:57:43;;;;;;;69.10;23.67;;;;;;;;;;5063752;28;20039;-48
2022/03/24 09:00:15;;;;;;;66.38;22.40;;;;;;;;;;5064788;28;20027;-47
2022/03/24 09:02:42;;;;;;;55.42;23.25;;;;;;;;;;5065338;28;20521;-47
2022/03/24 09:05:09;;;;;;;51.28;22.33;;;;;;;;;;5063181;28;20052;-48
2022/03/24 09:07:35;;;;;;;52.72;21.98;;;;;;;;;;5062278;28;20036;-50
2022/03/24 09:10:02;;;;;;;58.05;22.98;;;;;;;;;;5062707;28;20064;-47
2022/03/24 09:12:28;;;;;;;61.65;23.48;;;;;;;;;;5067309;28;20024;-46
2022/03/24 09:14:54;;;;;;;55.38;23.42;;;;;;;;;;5065153;28;20051;-47
2022/03/24 09:17:20;;;;;;;68.03;23.83;;;;;;;;;;5070699;28;20077;-47
2022/03/24 09:19:46;;;;;;;67.88;23.80;;;;;;;;;;5068636;28;20502;-49
2022/03/24 09:22:11;;;;;;;49.15;22.88;;;;;;;;;;5061010;28;20040;-47
2022/03/24 09:24:37;;;;;;;56.67;23.33;;;;;;;;;;5071917;28;20032;-48
2022/03/24 09:27:05;;;;;;;51.35;23.65;;;;;;;;;;5063439;28;20040;-48
2022/03/24 09:29:31;;;;;;;59.22;24.15;;;;;;;;;;5069107;28;20040;-47
2022/03/24 09:31:57;;;;;;;76.20;24.13;;;;;;;;;;5066809;28;20020;-47
2022/03/24 09:34:23;;;;;;;52.45;23.27;;;;;;;;;;5066419;28;20498;-47
2022/03/24 09:36:49;;;;;;;65.68;25.45;;;;;;;;;;5067963;28;20169;-47
2022/03/24 09:39:15;;;;;;;53.65;24.83;;;;;;;;;;5068516;28;20119;-49
2022/03/24 09:41:47;;;;;;;69.55;24.05;;;;;;;;;;5064993;28;20052;-47
2022/03/24 09:44:12;;;;;;;61.30;24.38;;;;;;;;;;5066068;28;20028;-47
2022/03/24 09:46:38;;;;;;;53.45;23.77;;;;;;;;;;5065680;28;20460;-47
2022/03/24 09:49:08;;;;;;;56.47;22.25;;;;;;;;;;5065562;28;20037;-47
2022/03/24 09:51:33;;;;;;;54.53;22.77;;;;;;;;;;5065584;28;20482;-47
2022/03/24 09:53:59;;;;;;;46.42;21.25;;;;;;;;;;5066079;28;20036;-48
2022/03/24 09:56:24;;;;;;;55.55;22.42;;;;;;;;;;5064960;28;20186;-47
2022/03/24 09:58:50;;;;;;;52.88;21.67;;;;;;;;;;5065470;28;20037;-47
2022/03/24 10:01:17;;;;;;;48.50;21.23;;;;;;;;;;5062788;28;20036;-47
2022/03/24 10:04:11;;;;;;;61.35;22.13;;;;;;;;;;5069669;28;20028;-48
2022/03/24 10:07:05;;;;;;;61.75;20.52;;;;;;;;;;5059143;28;20598;-47
2022/03/24 10:09:42;;;;;;;43.42;20.88;;;;;;;;;;5064449;28;20078;-47
2022/03/24 10:12:15;;;;;;;62.05;20.90;;;;;;;;;;5060844;28;20024;-48
2022/03/24 10:14:41;;;;;;;54.40;21.33;;;;;;;;;;5067247;28;20051;-51
2022/03/24 10:17:08;;;;;;;60.33;23.13;;;;;;;;;;5063077;28;20117;-49
2022/03/24 10:19:35;;;;;;;51.67;20.77;;;;;;;;;;5066685;28;20024;-49
2022/03/24 10:22:07;;;;;;;52.78;22.50;;;;;;;;;;5067517;28;20035;-50
2022/03/24 10:24:39;;;;;;;43.33;19.65;;;;;;;;;;5074433;28;20127;-50
2022/03/24 10:27:05;;;;;;;;;;;;;;;;;;5066546;28;20028;-50
2022/03/24 10:29:32;;;;;;;54.45;19.77;;;;;;;;;;5064196;28;20554;-48
2022/03/24 10:31:59;;;;;;;59.50;18.98;;;;;;;;;;5066814;28;20703;-49
2022/03/24 10:34:40;;;;;;;41.17;19.67;;;;;;;;;;5074317;28;20039;-49
2022/03/24 10:37:17;;;;;;;45.30;20.30;;;;;;;;;;5068241;28;20524;-47
2022/03/24 10:40:06;;;;;;;60.38;20.10;;;;;;;;;;5067973;28;20039;-48
2022/03/24 10:42:33;;;;;;;46.72;18.55;;;;;;;;;;5064866;28;20024;-47
2022/03/24 10:45:14;;;;;;;43.97;16.73;;;;;;;;;;5066652;28;20028;-48
2022/03/24 10:47:46;;;;;;;40.67;18.45;;;;;;;;;;5065324;28;20071;-47
2022/03/24 10:50:30;;;;;;;42.08;17.75;;;;;;;;;;5064306;28;20029;-47
2022/03/24 10:53:12;;;;;;;49.70;17.88;;;;;;;;;;5063673;28;20040;-47
2022/03/24 10:56:06;;;;;;;37.63;15.20;;;;;;;;;;5069014;28;20125;-47
2022/03/24 10:58:38;;;;;;;36.40;14.43;;;;;;;;;;5063842;28;20060;-48
2022/03/24 11:01:07;;;;;;;37.23;13.80;;;;;;;;;;5070146;28;20025;-47
2022/03/24 11:03:33;;;;;;;47.72;16.25;;;;;;;;;;5068938;28;20021;-48
2022/03/24 11:06:27;;;;;;;42.72;14.00;;;;;;;;;;5069643;28;20552;-49
2022/03/24 11:09:00;;;;;;;32.20;12.35;;;;;;;;;;5070854;28;20036;-47
2022/03/24 11:11:27;;;;;;;27.58;11.93;;;;;;;;;;5065500;28;20102;-47
2022/03/24 11:14:02;;;;;;;27.50;9.40;;;;;;;;;;5066471;28;20119;-48
2022/03/24 11:16:33;;;;;;;32.33;11.18;;;;;;;;;;5068585;28;20035;-47
2022/03/24 11:19:01;;;;;;;32.00;11.57;;;;;;;;;;5066297;28;20834;-47
2022/03/24 11:21:58;;;;;;;24.58;10.82;;;;;;;;;;5069206;28;20032;-47
2022/03/24 11:24:25;;;;;;;31.30;10.38;;;;;;;;;;5067089;28;20045;-47
2022/03/24 11:26:51;;;;;;;24.35;10.80;;;;;;;;;;5070247;28;20036;-47
2022/03/24 11:29:16;;;;;;;25.67;10.82;;;;;;;;;;5061066;28;20028;-48
2022/03/24 11:31:45;;;;;;;35.45;11.15;;;;;;;;;;5070020;28;20538;-47
2022/03/24 11:34:11;;;;;;;28.23;11.32;;;;;;;;;;5066354;28;20043;-48
2022/03/24 11:36:37;;;;;;;35.40;13.18;;;;;;;;;;5066055;28;20450;-48
2022/03/24 11:39:09;;;;;;;28.95;11.20;;;;;;;;;;5068856;28;20036;-47
2022/03/24 11:41:37;;;;;;;26.65;11.13;;;;;;;;;;5063089;28;20033;-48
2022/03/24 11:44:12;;;;;;;25.20;10.90;;;;;;;;;;5063096;28;20035;-48
2022/03/24 11:46:44;;;;;;;30.33;11.50;;;;;;;;;;5059883;28;20028;-48
2022/03/24 11:49:24;;;;;;;37.38;12.27;;;;;;;;;;5071894;28;20031;-47
2022/03/24 11:51:58;;;;;;;37.03;11.23;;;;;;;;;;5063197;28;20409;-51
2022/03/24 11:54:24;;;;;;;19.67;10.45;;;;;;;;;;5061064;28;20032;-49
2022/03/24 11:56:49;;;;;;;25.23;11.10;;;;;;;;;;5063027;28;20035;-47
2022/03/24 11:59:19;;;;;;;27.08;10.95;;;;;;;;;;5066783;28;20033;-48
2022/03/24 12:01:45;;;;;;;29.58;14.10;;;;;;;;;;5085459;28;20111;-48
2022/03/24 12:04:12;;;;;;;40.38;14.52;;;;;;;;;;5064989;28;20048;-48
2022/03/24 12:06:43;;;;;;;36.22;13.70;;;;;;;;;;5065274;28;20413;-48
2022/03/24 12:09:13;;;;;;;30.88;11.88;;;;;;;;;;5066161;28;20658;-48
2022/03/24 12:11:41;;;;;;;27.70;11.85;;;;;;;;;;5067968;28;20048;-47
2022/03/24 12:14:13;;;;;;;24.02;11.82;;;;;;;;;;5063654;28;20056;-48
2022/03/24 12:16:44;;;;;;;34.15;12.18;;;;;;;;;;5065935;28;20463;-48
2022/03/24 12:19:49;;;;;;;41.20;14.57;;;;;;;;;;5066740;28;20055;-47
2022/03/24 12:22:31;;;;;;;39.13;15.02;;;;;;;;;;5064993;28;20063;-50
2022/03/24 12:24:59;;;;;;;36.33;12.60;;;;;;;;;;5063559;28;20031;-48
2022/03/24 12:27:25;;;;;;;31.75;13.63;;;;;;;;;;5063813;28;20040;-48
2022/03/24 12:30:14;;;;;;;37.00;13.20;;;;;;;;;;5067425;28;20052;-48
2022/03/24 12:32:41;;;;;;;32.90;12.55;;;;;;;;;;5071546;28;20066;-50
2022/03/24 12:35:08;;;;;;;29.70;14.18;;;;;;;;;;5066060;28;20036;-48
2022/03/24 12:37:33;;;;;;;32.63;13.57;;;;;;;;;;5068584;28;20119;-48
2022/03/24 12:40:11;;;;;;;22.95;12.40;;;;;;;;;;5068392;28;20111;-48
2022/03/24 12:42:45;;;;;;;26.15;12.82;;;;;;;;;;5069435;28;20062;-48
2022/03/24 12:45:36;;;;;;;31.20;12.88;;;;;;;;;;5064514;28;20040;-48
2022/03/24 12:48:08;;;;;;;32.58;13.70;;;;;;;;;;5068490;28;20406;-48
2022/03/24 12:50:37;;;;;;;24.23;11.77;;;;;;;;;;5063734;28;20035;-47
2022/03/24 12:53:07;;;;;;;24.15;12.73;;;;;;;;;;5066582;28;20032;-48
2022/03/24 12:55:44;;;;;;;22.65;11.18;;;;;;;;;;5063852;28;20029;-48
2022/03/24 12:58:12;;;;;;;25.33;11.32;;;;;;;;;;5071801;28;20036;-48
2022/03/24 13:00:45;;;;;;;26.58;11.50;;;;;;;;;;5068202;28;20183;-47
2022/03/24 13:03:12;;;;;;;25.98;11.57;;;;;;;;;;5064846;28;20638;-48
2022/03/24 13:05:39;;;;;;;25.10;12.88;;;;;;;;;;5066622;28;20150;-47
2022/03/24 13:08:09;;;;;;;34.75;12.30;;;;;;;;;;5065624;28;20032;-48
2022/03/24 13:10:35;;;;;;;23.70;10.05;;;;;;;;;;5066059;28;20040;-48
2022/03/24 13:13:03;;;;;;;21.02;10.18;;;;;;;;;;5066739;28;20040;-48
2022/03/24 13:15:34;;;;;;;23.65;9.38;;;;;;;;;;5069997;28;20470;-48
2022/03/24 13:18:01;;;;;;;24.53;10.70;;;;;;;;;;5065581;28;20078;-49
2022/03/24 13:20:34;;;;;;;31.77;10.85;;;;;;;;;;5068629;28;20499;-48
2022/03/24 13:23:05;;;;;;;19.08;10.20;;;;;;;;;;5064746;28;20042;-51
2022/03/24 13:25:32;;;;;;;19.70;9.73;;;;;;;;;;5067435;28;20102;-48
2022/03/24 13:27:57;;;;;;;26.73;10.30;;;;;;;;;;5064361;28;20483;-49
2022/03/24 13:30:32;;;;;;;21.92;9.57;;;;;;;;;;5065730;28;20048;-51
2022/03/24 13:33:03;;;;;;;30.23;10.65;;;;;;;;;;5070354;28;20029;-48
2022/03/24 13:35:38;;;;;;;25.33;9.40;;;;;;;;;;5067967;28;20035;-50
2022/03/24 13:38:09;;;;;;;29.45;9.65;;;;;;;;;;5065546;28;20445;-52
2022/03/24 13:40:43;;;;;;;16.95;8.88;;;;;;;;;;5069319;28;20545;-47
2022/03/24 13:43:09;;;;;;;17.38;8.60;;;;;;;;;;5070289;28;20114;-47
2022/03/24 13:45:36;;;;;;;21.45;9.15;;;;;;;;;;5065994;28;20029;-47
2022/03/24 13:48:07;;;;;;;18.75;8.77;;;;;;;;;;5058566;28;20129;-49
2022/03/24 13:50:35;;;;;;;24.33;10.00;;;;;;;;;;5065805;28;20114;-50
2022/03/24 13:53:14;;;;;;;19.08;8.48;;;;;;;;;;5073112;28;20044;-47
2022/03/24 13:55:40;;;;;;;20.92;8.52;;;;;;;;;;5073526;28;20457;-48
2022/03/24 13:58:14;;;;;;;20.92;9.43;;;;;;;;;;5070001;28;20036;-48
2022/03/24 14:00:43;;;;;;;25.05;10.25;;;;;;;;;;5066474;28;20070;-47
2022/03/24 14:03:19;;;;;;;23.15;9.10;;;;;;;;;;5068397;28;20028;-47
2022/03/24 14:06:11;;;;;;;18.67;7.97;;;;;;;;;;5068577;28;20135;-48
2022/03/24 14:08:47;;;;;;;20.33;9.07;;;;;;;;;;5062048;28;20095;-48
2022/03/24 14:11:25;;;;;;;31.35;9.70;;;;;;;;;;5063664;28;20044;-48
2022/03/24 14:13:56;;;;;;;18.30;7.88;;;;;;;;;;5070077;28;20473;-48
2022/03/24 14:16:25;;;;;;;20.63;8.98;;;;;;;;;;5069390;28;20153;-47
2022/03/24 14:19:18;;;;;;;19.88;8.68;;;;;;;;;;5064729;28;20032;-48
2022/03/24 14:21:59;;;;;;;20.42;8.80;;;;;;;;;;5062620;28;20363;-48
2022/03/24 14:24:37;;;;;;;18.38;9.82;;;;;;;;;;5069220;28;20043;-48
2022/03/24 14:27:06;;;;;;;17.80;8.98;;;;;;;;;;5069696;28;20028;-48
2022/03/24 14:29:34;;;;;;;20.70;9.50;;;;;;;;;;5067598;28;20028;-48
2022/03/24 14:32:18;;;;;;;21.40;8.85;;;;;;;;;;5066861;28;20032;-48